createdAt,value
2023-05-06T00:02:38.167Z,100578.78
2023-05-06T00:05:41.872Z,100558.50
2023-05-06T00:08:45.274Z,100562.91
2023-05-06T00:11:47.967Z,100563.34
2023-05-06T00:14:50.319Z,100563.66
2023-05-06T00:17:52.937Z,100573.22
2023-05-06T00:20:56.097Z,100575.34
2023-05-06T00:23:58.741Z,100580.94
2023-05-06T00:27:01.873Z,100578.78
2023-05-06T00:30:05.533Z,100580.75
2023-05-06T00:33:08.808Z,100583.72
2023-05-06T00:36:11.453Z,100585.81
2023-05-06T00:39:14.334Z,100583.34
2023-05-06T00:42:17.041Z,100581.00
2023-05-06T00:45:19.317Z,100590.41
2023-05-06T00:48:22.208Z,100580.75
2023-05-06T00:51:25.913Z,100580.38
2023-05-06T00:54:29.857Z,100569.50
2023-05-06T00:57:32.654Z,100579.84
2023-05-06T01:00:35.617Z,100595.81
2023-05-06T01:03:38.421Z,100591.75
2023-05-06T01:06:49.372Z,100571.75
2023-05-06T01:10:10.770Z,100586.97
2023-05-06T01:13:16.227Z,100590.66
2023-05-06T01:16:23.452Z,100586.22
2023-05-06T01:19:43.152Z,100562.75
2023-05-06T01:22:45.581Z,100585.84
2023-05-06T01:25:48.226Z,100586.91
2023-05-06T01:28:52.031Z,100577.56
2023-05-06T01:31:59.969Z,100576.75
2023-05-06T01:35:24.307Z,100557.44
2023-05-06T01:38:48.279Z,100570.53
2023-05-06T01:41:51.910Z,100567.94
2023-05-06T01:44:57.281Z,100543.03
2023-05-06T01:47:59.860Z,100548.56
2023-05-06T01:51:03.232Z,100548.84
2023-05-06T01:54:05.901Z,100563.34
2023-05-06T01:57:08.532Z,100562.06
2023-05-06T02:00:11.285Z,100564.47
2023-05-06T02:03:14.405Z,100561.47
2023-05-06T02:06:17.569Z,100559.19
2023-05-06T02:09:20.693Z,100562.19
2023-05-06T02:12:25.489Z,100568.47
2023-05-06T02:15:29.046Z,100569.28
2023-05-06T02:18:32.066Z,100568.34
2023-05-06T02:21:34.447Z,100570.06
2023-05-06T02:24:37.127Z,100543.69
2023-05-06T02:27:39.691Z,100564.28
2023-05-06T02:30:42.367Z,100566.88
2023-05-06T02:33:45.955Z,100550.03
2023-05-06T02:36:48.569Z,100558.06
2023-05-06T02:39:50.994Z,100549.59
2023-05-06T02:42:53.690Z,100566.31
2023-05-06T02:45:56.201Z,100576.16
2023-05-06T02:48:58.926Z,100568.72
2023-05-06T02:52:01.286Z,100555.19
2023-05-06T02:55:04.085Z,100553.72
2023-05-06T02:58:06.381Z,100556.50
2023-05-06T03:01:09.344Z,100568.00
2023-05-06T03:04:11.790Z,100576.88
2023-05-06T03:07:14.484Z,100586.00
2023-05-06T03:10:16.948Z,100583.31
2023-05-06T03:13:19.613Z,100580.03
2023-05-06T03:16:22.129Z,100577.25
2023-05-06T03:19:25.772Z,100564.62
2023-05-06T03:22:28.955Z,100585.41
2023-05-06T03:25:32.432Z,100581.47
2023-05-06T03:28:35.752Z,100558.34
2023-05-06T03:31:39.098Z,100568.06
2023-05-06T03:34:41.983Z,100563.31
2023-05-06T03:37:45.301Z,100566.72
2023-05-06T03:40:47.899Z,100567.66
2023-05-06T03:43:50.975Z,100564.34
2023-05-06T03:46:53.972Z,100561.44
2023-05-06T03:49:57.250Z,100545.41
2023-05-06T03:53:00.628Z,100564.50
2023-05-06T03:56:03.888Z,100566.69
2023-05-06T03:59:06.643Z,100566.56
2023-05-06T04:02:09.552Z,100574.22
2023-05-06T04:05:12.930Z,100575.44
2023-05-06T04:08:17.155Z,100569.66
2023-05-06T04:11:20.045Z,100588.84
2023-05-06T04:14:22.675Z,100572.84
2023-05-06T04:17:26.068Z,100591.34
2023-05-06T04:20:29.118Z,100590.06
2023-05-06T04:23:32.672Z,100574.19
2023-05-06T04:26:35.411Z,100566.75
2023-05-06T04:29:38.371Z,100591.34
2023-05-06T04:32:40.872Z,100573.84
2023-05-06T04:35:53.786Z,100570.84
2023-05-06T04:38:57.089Z,100582.59
2023-05-06T04:41:59.990Z,100588.38
2023-05-06T04:45:03.532Z,100587.34
2023-05-06T04:48:09.026Z,100601.53
2023-05-06T04:51:11.571Z,100593.50
2023-05-06T04:54:14.418Z,100600.78
2023-05-06T04:57:17.501Z,100610.34
2023-05-06T05:00:20.375Z,100608.91
2023-05-06T05:03:23.218Z,100599.09
2023-05-06T05:06:28.133Z,100617.91
2023-05-06T05:09:31.072Z,100610.69
2023-05-06T05:12:33.947Z,100607.34
2023-05-06T05:15:38.693Z,100615.38
2023-05-06T05:18:42.074Z,100623.22
2023-05-06T05:21:45.156Z,100623.66
2023-05-06T05:24:48.498Z,100614.31
2023-05-06T05:27:52.510Z,100605.28
2023-05-06T05:30:55.271Z,100599.94
2023-05-06T05:33:58.020Z,100611.19
2023-05-06T05:37:01.947Z,100610.81
2023-05-06T05:40:05.588Z,100605.22
2023-05-06T05:43:09.480Z,100603.09
2023-05-06T05:46:12.936Z,100614.03
2023-05-06T05:49:15.926Z,100623.63
2023-05-06T05:52:18.470Z,100607.19
2023-05-06T05:55:21.579Z,100599.09
2023-05-06T05:58:24.345Z,100601.34
2023-05-06T06:01:27.243Z,100611.50
2023-05-06T06:04:30.509Z,100619.06
2023-05-06T06:07:33.348Z,100617.84
2023-05-06T06:10:36.064Z,100606.94
2023-05-06T06:13:39.161Z,100590.53
2023-05-06T06:16:42.033Z,100602.91
2023-05-06T06:19:47.544Z,100601.59
2023-05-06T06:22:50.193Z,100612.94
2023-05-06T06:25:52.662Z,100609.53
2023-05-06T06:28:55.364Z,100603.81
2023-05-06T06:31:58.377Z,100608.78
2023-05-06T06:35:01.125Z,100608.47
2023-05-06T06:38:03.576Z,100606.16
2023-05-06T06:41:06.251Z,100606.37
2023-05-06T06:44:08.589Z,100603.78
2023-05-06T06:47:11.241Z,100601.88
2023-05-06T06:50:13.776Z,100602.22
2023-05-06T06:53:16.528Z,100596.75
2023-05-06T06:56:19.026Z,100593.59
2023-05-06T06:59:21.726Z,100576.31
2023-05-06T07:02:24.150Z,100586.75
2023-05-06T07:05:29.857Z,100589.81
2023-05-06T07:08:32.186Z,100585.09
2023-05-06T07:11:34.912Z,100592.03
2023-05-06T07:14:37.234Z,100588.31
2023-05-06T07:17:39.991Z,100591.34
2023-05-06T07:20:42.479Z,100578.09
2023-05-06T07:23:45.188Z,100594.84
2023-05-06T07:26:47.565Z,100596.37
2023-05-06T07:29:50.686Z,100591.53
2023-05-06T07:32:53.353Z,100580.34
2023-05-06T07:35:56.199Z,100580.25
2023-05-06T07:38:58.522Z,100594.06
2023-05-06T07:42:02.006Z,100592.03
2023-05-06T07:45:05.421Z,100594.28
2023-05-06T07:48:08.337Z,100587.56
2023-05-06T07:51:11.473Z,100571.28
2023-05-06T07:54:14.191Z,100583.03
2023-05-06T07:57:17.097Z,100580.22
2023-05-06T08:00:19.893Z,100588.38
2023-05-06T08:03:22.617Z,100575.19
2023-05-06T08:06:25.216Z,100588.69
2023-05-06T08:09:27.916Z,100588.44
2023-05-06T08:12:30.630Z,100590.63
2023-05-06T08:15:33.360Z,100592.25
2023-05-06T08:18:35.764Z,100601.38
2023-05-06T08:21:38.545Z,100600.53
2023-05-06T08:24:40.941Z,100595.38
2023-05-06T08:27:43.618Z,100595.28
2023-05-06T08:30:48.405Z,100592.38
2023-05-06T08:33:53.878Z,100592.06
2023-05-06T08:36:56.911Z,100600.03
2023-05-06T08:40:00.107Z,100575.19
2023-05-06T08:43:04.940Z,100589.87
2023-05-06T08:46:07.952Z,100583.00
2023-05-06T08:49:11.042Z,100578.91
2023-05-06T08:52:13.997Z,100589.41
2023-05-06T08:55:17.247Z,100568.56
2023-05-06T08:58:21.854Z,100578.22
2023-05-06T09:01:28.082Z,100568.63
2023-05-06T09:04:31.328Z,100572.25
2023-05-06T09:07:33.665Z,100580.03
2023-05-06T09:10:46.239Z,100575.50
2023-05-06T09:13:48.924Z,100573.41
2023-05-06T09:16:53.094Z,100568.34
2023-05-06T09:19:59.476Z,100573.75
2023-05-06T09:23:02.883Z,100552.69
2023-05-06T09:26:05.450Z,100555.19
2023-05-06T09:29:08.442Z,100565.09
2023-05-06T09:32:14.599Z,100557.75
2023-05-06T09:35:17.515Z,100555.81
2023-05-06T09:38:20.167Z,100530.19
2023-05-06T09:41:25.711Z,100540.62
2023-05-06T09:44:29.130Z,100525.03
2023-05-06T09:47:35.564Z,100538.41
2023-05-06T09:50:38.044Z,100546.28
2023-05-06T09:53:41.613Z,100541.00
2023-05-06T09:56:44.569Z,100525.25
2023-05-06T09:59:47.676Z,100528.50
2023-05-06T10:02:50.932Z,100523.22
2023-05-06T10:05:57.204Z,100520.28
2023-05-06T10:09:00.914Z,100512.81
2023-05-06T10:12:04.546Z,100517.06
2023-05-06T10:15:08.231Z,100506.34
2023-05-06T10:18:11.376Z,100513.84
2023-05-06T10:21:19.517Z,100493.47
2023-05-06T10:24:33.382Z,100496.81
2023-05-06T10:27:40.811Z,100495.44
2023-05-06T10:30:45.015Z,100489.41
2023-05-06T10:33:54.491Z,100488.84
2023-05-06T10:36:58.730Z,100486.31
2023-05-06T10:40:04.237Z,100475.59
2023-05-06T10:43:32.977Z,100485.72
2023-05-06T10:46:59.731Z,100471.34
2023-05-06T10:50:37.926Z,100477.00
2023-05-06T10:54:02.640Z,100467.75
2023-05-06T10:57:09.825Z,100466.63
2023-05-06T11:00:13.226Z,100456.81
2023-05-06T11:03:18.919Z,100449.06
2023-05-06T11:06:39.075Z,100443.91
2023-05-06T11:10:14.233Z,100456.91
2023-05-06T11:13:24.514Z,100454.03
2023-05-06T11:16:47.356Z,100448.34
2023-05-06T11:19:49.697Z,100452.44
2023-05-06T11:22:54.629Z,100451.75
2023-05-06T11:25:58.611Z,100450.00
2023-05-06T11:29:04.088Z,100452.59
2023-05-06T11:32:22.493Z,100454.31
2023-05-06T11:35:26.265Z,100450.63
2023-05-06T11:38:44.515Z,100448.91
2023-05-06T11:41:47.234Z,100446.97
2023-05-06T11:44:49.625Z,100453.22
2023-05-06T11:47:54.760Z,100458.69
2023-05-06T11:50:57.613Z,100458.97
2023-05-06T11:54:10.133Z,100457.56
2023-05-06T11:57:13.397Z,100456.97
2023-05-06T12:00:16.451Z,100453.75
2023-05-06T12:03:20.452Z,100446.47
2023-05-06T12:06:34.087Z,100452.19
2023-05-06T12:09:43.187Z,100443.84
2023-05-06T12:12:45.998Z,100441.78
2023-05-06T12:15:50.390Z,100439.97
2023-05-06T12:18:54.102Z,100453.69
2023-05-06T12:22:13.725Z,100438.06
2023-05-06T12:25:16.376Z,100449.31
2023-05-06T12:28:20.976Z,100443.19
2023-05-06T12:31:24.452Z,100443.87
2023-05-06T12:34:40.195Z,100434.06
2023-05-06T12:37:42.488Z,100425.00
2023-05-06T12:40:53.685Z,100425.41
2023-05-06T12:43:56.300Z,100429.94
2023-05-06T12:47:23.767Z,100435.97
2023-05-06T12:50:43.638Z,100427.91
2023-05-06T12:53:46.387Z,100437.34
2023-05-06T12:56:48.733Z,100438.69
2023-05-06T12:59:51.455Z,100433.94
2023-05-06T13:02:53.948Z,100433.13
2023-05-06T13:05:56.643Z,100431.13
2023-05-06T13:08:59.509Z,100425.88
2023-05-06T13:12:03.133Z,100434.19
2023-05-06T13:15:06.250Z,100428.41
2023-05-06T13:18:09.254Z,100424.69
2023-05-06T13:21:13.186Z,100416.28
2023-05-06T13:24:17.127Z,100429.16
2023-05-06T13:27:19.484Z,100414.75
2023-05-06T13:30:22.162Z,100426.09
2023-05-06T13:33:24.529Z,100430.06
2023-05-06T13:36:27.366Z,100409.41
2023-05-06T13:39:29.676Z,100419.91
2023-05-06T13:42:32.298Z,100436.28
2023-05-06T13:45:34.792Z,100442.16
2023-05-06T13:48:37.423Z,100444.81
2023-05-06T13:51:39.785Z,100440.84
2023-05-06T13:54:42.437Z,100440.72
2023-05-06T13:57:44.788Z,100451.25
2023-05-06T14:00:48.564Z,100450.94
2023-05-06T14:03:51.256Z,100449.56
2023-05-06T14:06:53.867Z,100444.19
2023-05-06T14:09:56.502Z,100452.94
2023-05-06T14:12:59.000Z,100438.03
2023-05-06T14:16:01.853Z,100446.91
2023-05-06T14:19:05.793Z,100425.53
2023-05-06T14:22:08.488Z,100433.34
2023-05-06T14:25:11.297Z,100446.38
2023-05-06T14:28:15.708Z,100426.34
2023-05-06T14:31:18.196Z,100439.47
2023-05-06T14:34:20.891Z,100438.66
2023-05-06T14:37:23.260Z,100417.91
2023-05-06T14:40:26.040Z,100428.84
2023-05-06T14:43:28.511Z,100432.56
2023-05-06T14:46:32.047Z,100430.78
2023-05-06T14:49:34.385Z,100439.25
2023-05-06T14:52:38.790Z,100439.97
2023-05-06T14:55:42.155Z,100435.03
2023-05-06T14:58:44.845Z,100423.25
2023-05-06T15:01:47.245Z,100419.81
2023-05-06T15:04:49.918Z,100401.19
2023-05-06T15:07:52.251Z,100395.59
2023-05-06T15:10:55.017Z,100400.09
2023-05-06T15:13:57.364Z,100407.69
2023-05-06T15:17:00.284Z,100408.72
2023-05-06T15:20:04.485Z,100414.62
2023-05-06T15:23:07.153Z,100400.41
2023-05-06T15:26:09.555Z,100409.31
2023-05-06T15:29:12.821Z,100405.69
2023-05-06T15:32:15.213Z,100400.78
2023-05-06T15:35:17.833Z,100379.63
2023-05-06T15:38:20.234Z,100379.53
2023-05-06T15:41:26.646Z,100395.41
2023-05-06T15:44:29.031Z,100386.31
2023-05-06T15:47:31.945Z,100381.31
2023-05-06T15:50:36.527Z,100401.94
2023-05-06T15:53:40.347Z,100403.28
2023-05-06T15:56:42.677Z,100393.56
2023-05-06T15:59:45.318Z,100393.37
2023-05-06T16:02:47.891Z,100374.44
2023-05-06T16:05:53.386Z,100379.44
2023-05-06T16:08:55.731Z,100386.94
2023-05-06T16:11:58.390Z,100382.47
2023-05-06T16:15:01.591Z,100393.84
2023-05-06T16:18:04.875Z,100384.19
2023-05-06T16:21:07.893Z,100371.34
2023-05-06T16:24:11.461Z,100390.09
2023-05-06T16:27:14.142Z,100386.19
2023-05-06T16:30:17.846Z,100391.84
2023-05-06T16:33:20.254Z,100397.59
2023-05-06T16:36:22.979Z,100386.56
2023-05-06T16:39:25.412Z,100388.53
2023-05-06T16:42:28.152Z,100408.03
2023-05-06T16:45:30.592Z,100405.56
2023-05-06T16:48:33.479Z,100406.09
2023-05-06T16:51:36.205Z,100412.19
2023-05-06T16:54:39.076Z,100415.03
2023-05-06T16:57:41.508Z,100409.31
2023-05-06T17:00:44.337Z,100414.13
2023-05-06T17:03:46.815Z,100413.56
2023-05-06T17:06:49.456Z,100390.44
2023-05-06T17:09:51.844Z,100398.62
2023-05-06T17:12:54.738Z,100406.66
2023-05-06T17:15:57.136Z,100400.91
2023-05-06T17:18:59.805Z,100400.19
2023-05-06T17:22:02.245Z,100390.91
2023-05-06T17:25:05.314Z,100391.78
2023-05-06T17:28:07.698Z,100377.41
2023-05-06T17:31:10.508Z,100393.47
2023-05-06T17:34:12.842Z,100382.25
2023-05-06T17:37:15.548Z,100381.06
2023-05-06T17:40:18.058Z,100392.87
2023-05-06T17:43:23.533Z,100392.00
2023-05-06T17:46:26.073Z,100388.25
2023-05-06T17:49:28.818Z,100371.50
2023-05-06T17:52:31.232Z,100392.22
2023-05-06T17:55:33.903Z,100386.69
2023-05-06T17:58:36.438Z,100385.97
2023-05-06T18:01:39.413Z,100383.06
2023-05-06T18:04:45.172Z,100392.34
2023-05-06T18:07:47.509Z,100390.44
2023-05-06T18:10:50.525Z,100391.16
2023-05-06T18:13:53.616Z,100382.94
2023-05-06T18:16:57.150Z,100400.53
2023-05-06T18:19:59.600Z,100395.69
2023-05-06T18:23:19.849Z,100397.72
2023-05-06T18:26:44.631Z,100392.22
2023-05-06T18:29:48.718Z,100402.34
2023-05-06T18:32:52.285Z,100420.53
2023-05-06T18:35:56.892Z,100414.44
2023-05-06T18:38:59.275Z,100398.56
2023-05-06T18:42:02.298Z,100415.22
2023-05-06T18:45:07.000Z,100402.41
2023-05-06T18:48:10.870Z,100392.69
2023-05-06T18:51:15.800Z,100396.22
2023-05-06T18:54:22.055Z,100393.66
2023-05-06T18:57:26.726Z,100406.69
2023-05-06T19:00:29.554Z,100392.25
2023-05-06T19:03:33.429Z,100400.16
2023-05-06T19:06:39.989Z,100419.19
2023-05-06T19:09:43.144Z,100417.69
2023-05-06T19:12:45.901Z,100403.63
2023-05-06T19:15:54.378Z,100420.03
2023-05-06T19:18:58.508Z,100415.12
2023-05-06T19:22:02.270Z,100411.16
2023-05-06T19:25:05.120Z,100432.72
2023-05-06T19:28:07.571Z,100414.47
2023-05-06T19:31:11.258Z,100412.81
2023-05-06T19:34:13.824Z,100429.72
2023-05-06T19:37:16.409Z,100449.06
2023-05-06T19:40:19.621Z,100434.63
2023-05-06T19:43:23.249Z,100446.63
2023-05-06T19:46:25.705Z,100449.44
2023-05-06T19:49:30.408Z,100450.03
2023-05-06T19:52:34.534Z,100453.91
2023-05-06T19:55:37.675Z,100461.41
2023-05-06T19:58:40.397Z,100485.13
2023-05-06T20:01:43.143Z,100473.75
2023-05-06T20:04:55.681Z,100462.34
2023-05-06T20:08:02.069Z,100474.56
2023-05-06T20:11:05.682Z,100477.94
2023-05-06T20:14:08.031Z,100474.56
2023-05-06T20:17:10.677Z,100496.75
2023-05-06T20:20:13.308Z,100483.50
2023-05-06T20:23:15.990Z,100479.38
2023-05-06T20:26:18.384Z,100469.97
2023-05-06T20:29:21.099Z,100461.16
2023-05-06T20:32:23.441Z,100443.56
2023-05-06T20:35:27.214Z,100452.25
2023-05-06T20:38:30.966Z,100445.31
2023-05-06T20:41:33.567Z,100422.47
2023-05-06T20:44:36.054Z,100437.25
2023-05-06T20:47:38.810Z,100425.03
2023-05-06T20:50:41.332Z,100414.34
2023-05-06T20:53:46.067Z,100433.13
2023-05-06T20:56:48.391Z,100414.03
2023-05-06T20:59:52.512Z,100410.94
2023-05-06T21:02:55.111Z,100408.94
2023-05-06T21:05:57.750Z,100417.91
2023-05-06T21:09:00.203Z,100423.97
2023-05-06T21:12:05.120Z,100435.59
2023-05-06T21:15:08.255Z,100425.38
2023-05-06T21:18:11.169Z,100419.63
2023-05-06T21:21:13.659Z,100429.47
2023-05-06T21:24:16.290Z,100414.94
2023-05-06T21:27:18.652Z,100428.62
2023-05-06T21:30:22.145Z,100414.09
2023-05-06T21:33:24.809Z,100422.41
2023-05-06T21:36:27.462Z,100434.59
2023-05-06T21:39:29.858Z,100444.78
2023-05-06T21:42:32.812Z,100439.25
2023-05-06T21:45:36.130Z,100428.81
2023-05-06T21:48:38.834Z,100441.84
2023-05-06T21:51:41.169Z,100447.19
2023-05-06T21:54:46.136Z,100441.88
2023-05-06T21:57:48.460Z,100452.22
2023-05-06T22:00:52.370Z,100458.53
2023-05-06T22:03:55.311Z,100453.94
2023-05-06T22:06:57.824Z,100447.25
2023-05-06T22:10:00.546Z,100465.91
2023-05-06T22:13:03.631Z,100474.81
2023-05-06T22:16:08.188Z,100452.94
2023-05-06T22:19:10.790Z,100468.78
2023-05-06T22:22:13.461Z,100450.66
2023-05-06T22:25:15.853Z,100462.84
2023-05-06T22:28:19.305Z,100457.59
2023-05-06T22:31:22.311Z,100460.06
2023-05-06T22:34:24.968Z,100452.56
2023-05-06T22:37:27.299Z,100438.81
2023-05-06T22:40:29.984Z,100443.50
2023-05-06T22:43:32.361Z,100425.09
2023-05-06T22:46:35.045Z,100448.75
2023-05-06T22:49:38.200Z,100433.06
2023-05-06T22:52:41.126Z,100435.06
2023-05-06T22:55:43.570Z,100444.09
2023-05-06T22:58:46.339Z,100432.91
2023-05-06T23:01:48.879Z,100441.81
2023-05-06T23:04:51.668Z,100447.78
2023-05-06T23:07:54.188Z,100446.81
2023-05-06T23:10:56.846Z,100446.13
2023-05-06T23:13:59.212Z,100447.13
2023-05-06T23:17:01.948Z,100451.94
2023-05-06T23:20:04.800Z,100449.41
2023-05-06T23:23:10.570Z,100431.81
2023-05-06T23:26:13.042Z,100427.06
2023-05-06T23:29:15.811Z,100430.66
2023-05-06T23:32:18.265Z,100434.75
2023-05-06T23:35:20.863Z,100413.87
2023-05-06T23:38:23.228Z,100436.00
2023-05-06T23:41:25.902Z,100432.28
2023-05-06T23:44:28.435Z,100430.88
2023-05-06T23:47:31.134Z,100412.09
2023-05-06T23:50:33.762Z,100420.50
2023-05-06T23:53:36.457Z,100432.50
2023-05-06T23:56:38.787Z,100418.06
2023-05-06T23:59:41.376Z,100425.31
